createdAt,value
2023-01-13T00:00:53.127Z,3.58
2023-01-13T00:03:56.431Z,3.76
2023-01-13T00:06:58.789Z,3.80
2023-01-13T00:10:01.154Z,3.78
2023-01-13T00:13:04.484Z,3.91
2023-01-13T00:16:08.709Z,3.86
2023-01-13T00:19:11.020Z,3.81
2023-01-13T00:22:13.345Z,3.79
2023-01-13T00:25:15.700Z,3.78
2023-01-13T00:28:18.099Z,3.69
2023-01-13T00:31:21.467Z,3.73
2023-01-13T00:34:24.738Z,3.63
2023-01-13T00:37:27.103Z,3.57
2023-01-13T00:40:29.385Z,3.65
2023-01-13T00:43:32.854Z,3.72
2023-01-13T00:46:35.284Z,3.72
2023-01-13T00:49:37.586Z,3.67
2023-01-13T00:52:42.029Z,3.58
2023-01-13T00:55:44.629Z,3.70
2023-01-13T00:58:47.958Z,3.86
2023-01-13T01:01:50.449Z,3.95
2023-01-13T01:04:52.920Z,3.90
2023-01-13T01:07:55.243Z,3.91
2023-01-13T01:11:08.952Z,3.79
2023-01-13T01:14:13.128Z,3.84
2023-01-13T01:17:15.382Z,3.80
2023-01-13T01:20:17.849Z,3.90
2023-01-13T01:23:20.119Z,3.84
2023-01-13T01:26:26.924Z,3.87
2023-01-13T01:29:29.290Z,4.01
2023-01-13T01:32:34.194Z,3.98
2023-01-13T01:35:40.052Z,3.92
2023-01-13T01:38:42.649Z,4.02
2023-01-13T01:42:04.913Z,4.09
2023-01-13T01:45:24.166Z,4.14
2023-01-13T01:48:27.671Z,4.18
2023-01-13T01:51:32.147Z,4.10
2023-01-13T01:54:53.178Z,4.16
2023-01-13T01:58:00.155Z,4.03
2023-01-13T02:01:04.452Z,3.97
2023-01-13T02:04:12.737Z,4.03
2023-01-13T02:07:15.143Z,4.06
2023-01-13T02:10:20.568Z,4.04
2023-01-13T02:13:23.134Z,4.14
2023-01-13T02:16:25.488Z,4.29
2023-01-13T02:20:09.585Z,4.17
2023-01-13T02:23:58.848Z,4.27
2023-01-13T02:27:10.315Z,4.36
2023-01-13T02:30:37.260Z,4.41
2023-01-13T02:33:46.783Z,4.33
2023-01-13T02:36:54.401Z,4.38
2023-01-13T02:40:24.854Z,4.47
2023-01-13T02:43:55.544Z,4.51
2023-01-13T02:47:01.626Z,4.49
2023-01-13T02:50:10.625Z,4.44
2023-01-13T02:53:34.648Z,4.29
2023-01-13T02:56:40.769Z,4.40
2023-01-13T02:59:43.286Z,4.47
2023-01-13T03:02:45.758Z,4.46
2023-01-13T03:05:51.998Z,4.54
2023-01-13T03:09:02.525Z,4.47
2023-01-13T03:12:19.498Z,4.51
2023-01-13T03:15:37.163Z,4.51
2023-01-13T03:18:48.515Z,4.49
2023-01-13T03:22:23.916Z,4.41
2023-01-13T03:25:57.196Z,4.40
2023-01-13T03:29:30.889Z,4.42
2023-01-13T03:32:34.640Z,4.30
2023-01-13T03:35:40.941Z,4.31
2023-01-13T03:38:51.112Z,4.29
2023-01-13T03:41:57.661Z,4.40
2023-01-13T03:45:10.344Z,4.49
2023-01-13T03:48:16.984Z,4.32
2023-01-13T03:51:19.803Z,4.45
2023-01-13T03:54:23.438Z,4.36
2023-01-13T03:57:30.067Z,4.42
2023-01-13T04:01:00.441Z,4.40
2023-01-13T04:04:08.530Z,4.42
2023-01-13T04:07:27.866Z,4.47
2023-01-13T04:10:45.591Z,4.38
2023-01-13T04:13:48.953Z,4.44
2023-01-13T04:16:51.198Z,4.44
2023-01-13T04:19:53.514Z,4.48
2023-01-13T04:22:55.973Z,4.52
2023-01-13T04:25:58.574Z,4.44
2023-01-13T04:29:00.918Z,4.30
2023-01-13T04:32:03.752Z,4.41
2023-01-13T04:35:08.520Z,4.54
2023-01-13T04:38:17.662Z,4.68
2023-01-13T04:41:20.067Z,4.66
2023-01-13T04:44:22.330Z,4.68
2023-01-13T04:47:24.658Z,4.50
2023-01-13T04:50:27.090Z,4.56
2023-01-13T04:53:29.398Z,4.70
2023-01-13T04:56:32.299Z,4.73
2023-01-13T04:59:34.747Z,4.64
2023-01-13T05:02:38.190Z,4.72
2023-01-13T05:05:40.590Z,4.69
2023-01-13T05:08:42.979Z,4.67
2023-01-13T05:12:03.996Z,4.77
2023-01-13T05:15:25.508Z,4.69
2023-01-13T05:18:30.121Z,4.58
2023-01-13T05:21:51.002Z,4.58
2023-01-13T05:25:12.144Z,4.67
2023-01-13T05:28:17.420Z,4.69
2023-01-13T05:31:20.461Z,4.68
2023-01-13T05:34:22.986Z,4.77
2023-01-13T05:37:29.715Z,4.81
2023-01-13T05:40:50.953Z,4.90
2023-01-13T05:43:53.400Z,4.82
2023-01-13T05:47:04.435Z,4.73
2023-01-13T05:50:10.483Z,4.52
2023-01-13T05:53:13.203Z,4.77
2023-01-13T05:57:31.283Z,4.56
2023-01-13T06:00:47.885Z,4.60
2023-01-13T06:03:54.713Z,4.72
2023-01-13T06:07:13.489Z,4.67
2023-01-13T06:10:16.322Z,4.87
2023-01-13T06:13:41.853Z,4.51
2023-01-13T06:16:45.713Z,4.60
2023-01-13T06:25:29.139Z,4.71
2023-01-13T06:33:44.612Z,4.48
2023-01-13T06:36:50.418Z,4.70
2023-01-13T06:40:11.063Z,4.56
2023-01-13T06:43:17.208Z,4.41
2023-01-13T06:46:22.803Z,4.45
2023-01-13T06:49:25.190Z,4.33
2023-01-13T06:52:33.358Z,4.49
2023-01-13T06:55:40.880Z,4.56
2023-01-13T06:58:43.518Z,4.46
2023-01-13T07:01:53.730Z,4.40
2023-01-13T07:05:31.153Z,4.48
2023-01-13T07:08:51.736Z,4.38
2023-01-13T07:16:49.925Z,4.55
2023-01-13T07:19:52.789Z,4.64
2023-01-13T07:22:56.557Z,4.72
2023-01-13T07:26:00.159Z,4.73
2023-01-13T07:29:05.810Z,4.71
2023-01-13T07:32:08.346Z,4.66
2023-01-13T07:35:10.732Z,4.71
2023-01-13T07:38:13.422Z,4.75
2023-01-13T07:41:34.687Z,4.77
2023-01-13T07:44:42.471Z,4.81
2023-01-13T07:47:44.902Z,4.69
2023-01-13T07:50:49.917Z,5.09
2023-01-13T07:54:11.937Z,4.74
2023-01-13T07:57:24.401Z,4.73
2023-01-13T08:00:27.027Z,4.75
2023-01-13T08:03:33.286Z,4.38
2023-01-13T08:06:47.663Z,4.09
2023-01-13T08:09:56.387Z,4.34
2023-01-13T08:13:17.707Z,4.67
2023-01-13T08:16:21.341Z,4.43
2023-01-13T08:19:31.695Z,4.54
2023-01-13T08:26:16.885Z,4.68
2023-01-13T08:29:21.131Z,4.63
2023-01-13T08:32:23.524Z,4.68
2023-01-13T08:35:32.652Z,4.83
2023-01-13T08:42:13.298Z,4.66
2023-01-13T08:45:28.536Z,4.73
2023-01-13T08:48:35.470Z,4.86
2023-01-13T08:51:44.499Z,4.70
2023-01-13T08:54:51.164Z,4.84
2023-01-13T08:58:00.585Z,5.14
2023-01-13T09:01:14.550Z,4.95
2023-01-13T09:04:19.883Z,4.83
2023-01-13T09:07:27.282Z,4.84
2023-01-13T09:10:31.814Z,4.90
2023-01-13T09:13:34.139Z,4.64
2023-01-13T09:16:36.357Z,4.80
2023-01-13T09:19:40.177Z,4.62
2023-01-13T09:22:52.550Z,4.78
2023-01-13T09:25:55.162Z,4.74
2023-01-13T09:28:57.429Z,4.57
2023-01-13T09:32:02.165Z,4.57
2023-01-13T09:35:15.699Z,4.51
2023-01-13T09:38:19.351Z,4.41
2023-01-13T09:41:48.299Z,4.61
2023-01-13T09:44:57.646Z,4.58
2023-01-13T09:52:26.959Z,4.33
2023-01-13T09:55:35.415Z,4.53
2023-01-13T09:58:56.194Z,4.90
2023-01-13T10:02:22.813Z,4.99
2023-01-13T10:05:39.363Z,4.69
2023-01-13T10:08:45.497Z,4.64
2023-01-13T10:12:19.431Z,4.62
2023-01-13T10:15:27.557Z,4.37
2023-01-13T10:19:10.269Z,4.56
2023-01-13T10:44:22.823Z,4.85
2023-01-13T10:47:36.480Z,4.91
2023-01-13T10:50:39.475Z,4.92
2023-01-13T10:53:46.984Z,4.74
2023-01-13T10:56:50.625Z,4.84
2023-01-13T10:59:55.004Z,4.76
2023-01-13T11:03:20.133Z,5.23
2023-01-13T11:06:48.280Z,4.85
2023-01-13T11:10:09.733Z,5.07
2023-01-13T11:18:41.757Z,4.79
2023-01-13T11:22:09.076Z,4.77
2023-01-13T11:25:20.687Z,4.75
2023-01-13T11:28:49.258Z,4.76
2023-01-13T11:31:56.466Z,4.80
2023-01-13T11:35:21.523Z,4.88
2023-01-13T11:38:56.675Z,4.83
2023-01-13T11:46:51.060Z,4.94
2023-01-13T11:49:53.601Z,4.79
2023-01-13T11:53:42.002Z,4.89
2023-01-13T11:57:25.567Z,5.28
2023-01-13T12:00:47.529Z,5.06
2023-01-13T12:04:13.695Z,5.21
2023-01-13T12:07:51.128Z,5.28
2023-01-13T12:11:28.484Z,5.19
2023-01-13T12:14:52.722Z,5.13
2023-01-13T12:18:13.995Z,4.99
2023-01-13T12:21:36.759Z,4.74
2023-01-13T12:25:01.609Z,4.82
2023-01-13T12:28:33.084Z,4.84
2023-01-13T12:31:41.979Z,5.13
2023-01-13T12:35:30.051Z,4.72
2023-01-13T12:43:56.811Z,5.50
2023-01-13T12:47:09.585Z,5.45
2023-01-13T12:50:27.101Z,5.66
2023-01-13T12:53:36.351Z,5.67
2023-01-13T12:56:42.534Z,5.75
2023-01-13T13:00:05.155Z,5.59
2023-01-13T13:03:19.310Z,5.68
2023-01-13T13:06:29.719Z,5.57
2023-01-13T13:09:38.647Z,5.49
2023-01-13T13:13:04.201Z,5.57
2023-01-13T13:16:44.018Z,5.44
2023-01-13T13:20:22.094Z,5.65
2023-01-13T13:23:54.595Z,5.85
2023-01-13T13:26:57.002Z,5.83
2023-01-13T13:30:27.889Z,5.83
2023-01-13T13:34:06.951Z,5.35
2023-01-13T13:38:03.221Z,5.75
2023-01-13T13:41:39.625Z,5.72
2023-01-13T13:45:25.839Z,5.56
2023-01-13T13:48:31.176Z,5.79
2023-01-13T13:52:02.567Z,5.86
2023-01-13T13:55:19.999Z,5.97
2023-01-13T13:58:23.582Z,6.00
2023-01-13T14:01:39.674Z,6.04
2023-01-13T14:05:13.034Z,5.86
2023-01-13T14:08:26.163Z,5.73
2023-01-13T14:11:33.084Z,5.92
2023-01-13T14:14:35.572Z,5.83
2023-01-13T14:17:38.999Z,6.03
2023-01-13T14:20:42.922Z,5.88
2023-01-13T14:24:15.800Z,5.69
2023-01-13T14:27:19.620Z,5.65
2023-01-13T14:30:23.520Z,5.41
2023-01-13T14:33:40.870Z,5.67
2023-01-13T14:36:44.635Z,5.88
2023-01-13T14:39:47.321Z,5.80
2023-01-13T14:43:04.595Z,5.67
2023-01-13T14:46:15.208Z,5.71
2023-01-13T14:50:01.160Z,6.11
2023-01-13T14:53:05.418Z,6.03
2023-01-13T14:56:56.118Z,6.19
2023-01-13T15:00:22.323Z,6.11
2023-01-13T15:03:24.663Z,6.21
2023-01-13T15:06:34.844Z,6.32
2023-01-13T15:09:41.752Z,6.55
2023-01-13T15:12:47.208Z,6.54
2023-01-13T15:15:56.695Z,6.61
2023-01-13T15:19:00.093Z,6.46
2023-01-13T15:22:09.864Z,6.27
2023-01-13T15:28:53.962Z,5.95
2023-01-13T15:31:56.526Z,6.02
2023-01-13T15:35:25.405Z,5.89
2023-01-13T15:42:34.928Z,5.77
2023-01-13T15:45:56.496Z,5.76
2023-01-13T15:49:02.087Z,5.71
2023-01-13T15:52:12.673Z,5.52
2023-01-13T15:55:15.271Z,5.62
2023-01-13T15:58:21.142Z,5.56
2023-01-13T16:01:26.117Z,5.53
2023-01-13T16:04:37.966Z,5.26
2023-01-13T16:07:43.544Z,5.40
2023-01-13T16:10:50.782Z,5.53
2023-01-13T16:14:00.213Z,5.66
2023-01-13T16:17:16.908Z,5.50
2023-01-13T16:20:19.571Z,5.44
2023-01-13T16:23:23.018Z,5.65
2023-01-13T16:26:27.988Z,5.63
2023-01-13T16:29:30.286Z,5.58
2023-01-13T16:32:32.674Z,5.71
2023-01-13T16:35:35.456Z,5.78
2023-01-13T16:38:57.833Z,5.79
2023-01-13T16:42:00.254Z,5.77
2023-01-13T16:45:08.384Z,5.76
2023-01-13T16:48:19.510Z,5.77
2023-01-13T16:51:22.877Z,5.75
2023-01-13T16:54:25.201Z,5.67
2023-01-13T16:57:27.537Z,5.73
2023-01-13T17:00:29.805Z,5.80
2023-01-13T17:03:36.042Z,5.73
2023-01-13T17:06:58.014Z,5.88
2023-01-13T17:10:00.338Z,5.71
2023-01-13T17:13:14.710Z,5.81
2023-01-13T17:16:22.698Z,5.84
2023-01-13T17:19:25.819Z,5.73
2023-01-13T17:22:28.174Z,5.72
2023-01-13T17:25:30.771Z,5.58
2023-01-13T17:28:33.241Z,5.47
2023-01-13T17:31:36.419Z,5.37
2023-01-13T17:34:40.231Z,5.51
2023-01-13T17:37:42.565Z,5.56
2023-01-13T17:40:45.841Z,5.67
2023-01-13T17:43:48.210Z,5.59
2023-01-13T17:46:50.740Z,5.73
2023-01-13T17:49:53.227Z,5.76
2023-01-13T17:52:55.588Z,5.72
2023-01-13T17:55:58.039Z,5.80
2023-01-13T17:59:00.311Z,5.78
2023-01-13T18:02:03.097Z,5.85
2023-01-13T18:05:05.784Z,5.87
2023-01-13T18:08:08.946Z,5.86
2023-01-13T18:11:11.456Z,5.94
2023-01-13T18:14:13.845Z,6.01
2023-01-13T18:17:17.041Z,5.91
2023-01-13T18:20:38.061Z,5.95
2023-01-13T18:23:58.971Z,5.98
2023-01-13T18:27:23.028Z,6.05
2023-01-13T18:30:25.691Z,6.05
2023-01-13T18:33:28.027Z,6.10
2023-01-13T18:36:30.344Z,6.11
2023-01-13T18:39:32.882Z,6.03
2023-01-13T18:42:51.515Z,6.08
2023-01-13T18:45:53.987Z,6.07
2023-01-13T18:48:56.412Z,6.03
2023-01-13T18:51:58.789Z,6.05
2023-01-13T18:55:01.119Z,6.12
2023-01-13T18:58:03.799Z,6.25
2023-01-13T19:01:06.945Z,6.24
2023-01-13T19:04:15.827Z,6.20
2023-01-13T19:07:23.618Z,6.17
2023-01-13T19:10:28.036Z,6.12
2023-01-13T19:13:30.609Z,6.10
2023-01-13T19:16:32.902Z,6.13
2023-01-13T19:19:43.898Z,6.14
2023-01-13T19:22:53.785Z,6.16
2023-01-13T19:26:08.872Z,6.23
2023-01-13T19:29:11.278Z,6.34
2023-01-13T19:32:13.830Z,6.38
2023-01-13T19:35:18.164Z,6.34
2023-01-13T19:38:20.836Z,6.38
2023-01-13T19:41:41.693Z,6.37
2023-01-13T19:45:02.582Z,6.45
2023-01-13T19:48:07.421Z,6.45
2023-01-13T19:51:10.575Z,6.49
2023-01-13T19:54:12.954Z,6.43
2023-01-13T19:57:15.755Z,6.47
2023-01-13T20:00:20.827Z,6.44
2023-01-13T20:03:25.955Z,6.49
2023-01-13T20:06:28.306Z,6.52
2023-01-13T20:09:31.171Z,6.52
2023-01-13T20:12:33.618Z,6.51
2023-01-13T20:15:38.056Z,6.53
2023-01-13T20:18:40.571Z,6.58
2023-01-13T20:21:43.257Z,6.62
2023-01-13T20:24:45.626Z,6.72
2023-01-13T20:27:48.316Z,6.81
2023-01-13T20:30:50.880Z,6.71
2023-01-13T20:33:53.248Z,6.70
2023-01-13T20:36:55.615Z,6.53
2023-01-13T20:40:01.490Z,6.52
2023-01-13T20:43:04.318Z,6.49
2023-01-13T20:46:06.595Z,6.44
2023-01-13T20:49:12.480Z,6.40
2023-01-13T20:52:14.752Z,6.44
2023-01-13T20:55:17.115Z,6.41
2023-01-13T20:58:19.543Z,6.40
2023-01-13T21:01:22.340Z,6.38
2023-01-13T21:04:24.943Z,6.33
2023-01-13T21:07:28.410Z,6.13
2023-01-13T21:10:30.759Z,6.28
2023-01-13T21:13:51.604Z,6.21
2023-01-13T21:16:53.902Z,6.36
2023-01-13T21:19:56.564Z,6.36
2023-01-13T21:22:59.619Z,6.40
2023-01-13T21:26:01.974Z,6.37
2023-01-13T21:29:04.511Z,6.45
2023-01-13T21:32:06.921Z,6.45
2023-01-13T21:35:09.543Z,6.42
2023-01-13T21:38:12.254Z,6.45
2023-01-13T21:41:15.153Z,6.37
2023-01-13T21:44:38.555Z,6.47
2023-01-13T21:47:49.848Z,6.35
2023-01-13T21:50:52.251Z,6.30
2023-01-13T21:53:55.296Z,6.34
2023-01-13T21:56:57.610Z,6.20
2023-01-13T21:59:59.985Z,6.35
2023-01-13T22:03:04.402Z,6.39
2023-01-13T22:06:06.903Z,6.41
2023-01-13T22:09:09.144Z,6.42
2023-01-13T22:12:11.558Z,6.27
2023-01-13T22:15:15.679Z,6.13
2023-01-13T22:18:20.993Z,6.15
2023-01-13T22:21:23.299Z,6.10
2023-01-13T22:24:25.766Z,6.15
2023-01-13T22:27:29.216Z,6.11
2023-01-13T22:30:32.710Z,6.07
2023-01-13T22:33:35.074Z,6.29
2023-01-13T22:36:37.471Z,6.44
2023-01-13T22:39:39.795Z,6.42
2023-01-13T22:42:42.995Z,6.47
2023-01-13T22:45:45.427Z,6.35
2023-01-13T22:48:48.472Z,6.05
2023-01-13T22:51:50.936Z,6.26
2023-01-13T22:54:53.269Z,6.55
2023-01-13T22:57:55.587Z,6.56
2023-01-13T23:01:08.447Z,6.59
2023-01-13T23:04:13.287Z,6.68
2023-01-13T23:07:15.670Z,6.61
2023-01-13T23:10:18.161Z,6.57
2023-01-13T23:13:20.446Z,6.48
2023-01-13T23:16:22.937Z,6.45
2023-01-13T23:19:25.299Z,6.50
2023-01-13T23:22:28.013Z,6.52
2023-01-13T23:25:30.257Z,6.57
2023-01-13T23:28:33.470Z,6.42
2023-01-13T23:31:35.914Z,6.35
2023-01-13T23:34:38.849Z,6.28
2023-01-13T23:37:42.032Z,6.23
2023-01-13T23:40:45.421Z,6.08
2023-01-13T23:43:52.690Z,6.23
2023-01-13T23:46:55.041Z,6.21
2023-01-13T23:49:57.978Z,6.11
2023-01-13T23:53:00.303Z,6.13
2023-01-13T23:56:04.685Z,6.36
2023-01-13T23:59:08.076Z,6.35
